Airfield :
LOGIN :

Register | Disclaimer

   EN    FR    IT 

 










Legend :    VFR   Marginal VFR   IFR   Intensive IFR   Very Intensive IFR
Visi :
Ceiling :
>= 8 km
>= 3000ft
5 to 8 km
1000 to 3000 ft
1500m to 5 km
500 to 1000 ft
800 to 1500m
200 to 500 ft
< 800m
< 200 ft
Symbols :   Thunderstorms  Fog  Heavy snow  Heavy precipitations  Wind > 20 kt
SIGMETs :     Misc.  Thunderstorms  Icing  Turbulence  Mountain Waves  Volcanic Ashes







- Airport Elevation : 616 ft
- IATA code : PUF
- Download approach charts


LFBP - Pau

CURRENT METAR :
  • 191500Z AUTO 03004KT 350V060 9999 FEW032 SCT048 OVC054 10/03 Q1028 NOSIG

EXPIRED METARs :
  • 191430Z AUTO 35006KT 9999 FEW034 OVC052 10/04 Q1028 NOSIG
  • 191400Z AUTO 36007KT 9999 SCT023 BKN034 BKN042 10/05 Q1028 NOSIG
  • 191330Z AUTO 33008KT 9999 BKN025 BKN032 OVC041 09/05 Q1028 NOSIG
  • 191300Z AUTO 33004KT 290V030 9999 SCT027 BKN034 BKN047 10/05 Q1028 NOSIG
  • 191230Z AUTO 35006KT 300V050 9999 FEW025 BKN046 10/05 Q1028 NOSIG
  • 191200Z AUTO 35006KT 310V030 9999 FEW020 OVC041 09/05 Q1028 NOSIG

TAF TAF LFBP
Valid from the 19 at 12:00 until the 20 at 12:00 UTC


191100Z 1912/2012 36006KT 9999 BKN035
BECMG 1918/1920 VRB03KT
BECMG 2000/2002 CAVOK
PROB30
TEMPO 2002/2006 2000 BR
No reported NOTAMs for that airfield.



MET'MAP, your aeronautical weather chart ! - Copyright ORBIFLY December 2007 - Disclaimer

ORBIFLY MET'MAP TEAM :

Programming & Development : Alexandra Zaïnal
Concept & Development : Baudouin d'Aumeries
Co-Development & Prog : Marc-Olivier Méhu
Technical & hardware support : Manuel Goepfert

Contact : metmap@orbifly.com




SOURCES & CREDITS :

   NOAA